createdAt,value
2023-02-07T00:01:33.033Z,78.10
2023-02-07T00:04:00.767Z,78.00
2023-02-07T00:06:31.012Z,78.00
2023-02-07T00:09:02.486Z,78.10
2023-02-07T00:11:30.073Z,78.20
2023-02-07T00:13:59.131Z,78.20
2023-02-07T00:16:27.146Z,78.30
2023-02-07T00:18:55.330Z,78.30
2023-02-07T00:21:24.408Z,78.40
2023-02-07T00:23:53.067Z,78.40
2023-02-07T00:26:22.848Z,78.40
2023-02-07T00:28:52.144Z,78.50
2023-02-07T00:31:23.285Z,78.50
2023-02-07T00:33:52.419Z,78.60
2023-02-07T00:36:22.692Z,78.50
2023-02-07T00:38:50.600Z,78.60
2023-02-07T00:41:20.040Z,78.60
2023-02-07T00:43:48.595Z,78.70
2023-02-07T00:46:16.444Z,78.80
2023-02-07T00:48:44.204Z,78.70
2023-02-07T00:51:13.785Z,78.70
2023-02-07T00:53:41.845Z,78.70
2023-02-07T00:56:09.453Z,78.70
2023-02-07T00:58:37.031Z,78.70
2023-02-07T01:01:05.206Z,78.70
2023-02-07T01:03:33.349Z,78.70
2023-02-07T01:06:00.772Z,78.70
2023-02-07T01:08:28.195Z,78.70
2023-02-07T01:10:55.962Z,78.70
2023-02-07T01:13:23.817Z,78.70
2023-02-07T01:15:51.219Z,78.60
2023-02-07T01:18:18.569Z,78.70
2023-02-07T01:20:45.853Z,78.60
2023-02-07T01:23:14.995Z,78.60
2023-02-07T01:25:46.019Z,78.50
2023-02-07T01:28:14.917Z,78.50
2023-02-07T01:30:44.387Z,78.50
2023-02-07T01:33:11.775Z,78.50
2023-02-07T01:35:39.509Z,78.40
2023-02-07T01:38:08.144Z,78.40
2023-02-07T01:40:38.354Z,78.40
2023-02-07T01:43:06.876Z,78.40
2023-02-07T01:45:41.015Z,78.40
2023-02-07T01:48:15.722Z,78.40
2023-02-07T01:50:48.610Z,78.40
2023-02-07T01:53:20.135Z,78.50
2023-02-07T01:55:50.736Z,78.50
2023-02-07T01:58:18.506Z,78.50
2023-02-07T02:00:47.240Z,78.50
2023-02-07T02:03:14.541Z,78.60
2023-02-07T02:05:43.739Z,78.50
2023-02-07T02:08:11.117Z,78.60
2023-02-07T02:11:01.432Z,78.60
2023-02-07T02:13:43.662Z,78.60
2023-02-07T02:16:16.937Z,78.60
2023-02-07T02:19:21.597Z,78.60
2023-02-07T02:22:23.601Z,78.60
2023-02-07T02:25:00.035Z,78.70
2023-02-07T02:27:35.999Z,78.70
2023-02-07T02:30:34.946Z,78.60
2023-02-07T02:33:19.406Z,78.60
2023-02-07T02:35:49.710Z,78.70
2023-02-07T02:38:26.440Z,78.70
2023-02-07T02:41:21.830Z,78.70
2023-02-07T02:44:03.410Z,78.70
2023-02-07T02:46:39.850Z,78.70
2023-02-07T02:49:10.699Z,78.60
2023-02-07T02:51:38.807Z,78.70
2023-02-07T02:54:37.680Z,78.70
2023-02-07T02:57:27.727Z,78.70
2023-02-07T02:59:55.042Z,78.70
2023-02-07T03:02:29.943Z,78.70
2023-02-07T03:05:06.206Z,78.80
2023-02-07T03:07:52.702Z,78.90
2023-02-07T03:10:45.166Z,78.90
2023-02-07T03:13:29.012Z,78.90
2023-02-07T03:16:06.449Z,79.00
2023-02-07T03:18:49.117Z,79.00
2023-02-07T03:21:34.089Z,79.00
2023-02-07T03:24:06.704Z,79.00
2023-02-07T03:26:37.684Z,79.10
2023-02-07T03:29:07.881Z,79.10
2023-02-07T03:31:39.237Z,79.20
2023-02-07T03:34:18.281Z,79.20
2023-02-07T03:36:58.487Z,79.30
2023-02-07T03:39:26.685Z,79.30
2023-02-07T03:41:58.223Z,79.30
2023-02-07T03:44:28.621Z,79.20
2023-02-07T03:46:55.932Z,79.20
2023-02-07T03:49:23.238Z,79.20
2023-02-07T03:51:51.969Z,79.20
2023-02-07T03:54:19.271Z,79.20
2023-02-07T03:56:46.483Z,79.10
2023-02-07T03:59:13.870Z,79.10
2023-02-07T04:01:42.776Z,79.10
2023-02-07T04:04:11.892Z,79.70
2023-02-07T04:06:39.195Z,79.10
2023-02-07T04:09:06.758Z,79.20
2023-02-07T04:11:34.047Z,79.20
2023-02-07T04:14:01.350Z,79.20
2023-02-07T04:16:28.636Z,79.20
2023-02-07T04:18:56.289Z,79.20
2023-02-07T04:21:23.591Z,79.10
2023-02-07T04:23:50.798Z,79.20
2023-02-07T04:26:18.061Z,79.10
2023-02-07T04:28:45.475Z,79.20
2023-02-07T04:31:12.970Z,79.20
2023-02-07T04:33:40.277Z,79.20
2023-02-07T04:36:08.086Z,79.10
2023-02-07T04:38:35.508Z,79.20
2023-02-07T04:41:04.922Z,79.20
2023-02-07T04:43:34.556Z,79.10
2023-02-07T04:46:02.592Z,79.20
2023-02-07T04:48:30.084Z,79.20
2023-02-07T04:50:57.632Z,79.20
2023-02-07T04:53:25.321Z,79.10
2023-02-07T04:55:54.116Z,79.20
2023-02-07T04:58:22.877Z,79.80
2023-02-07T05:00:50.179Z,79.10
2023-02-07T05:03:17.464Z,79.10
2023-02-07T05:05:45.436Z,79.10
2023-02-07T05:08:13.911Z,79.10
2023-02-07T05:10:41.852Z,79.10
2023-02-07T05:13:09.390Z,79.10
2023-02-07T05:15:38.678Z,79.10
2023-02-07T05:18:06.259Z,79.10
2023-02-07T05:20:33.490Z,79.10
2023-02-07T05:23:00.837Z,79.10
2023-02-07T05:25:28.563Z,79.10
2023-02-07T05:27:55.958Z,79.00
2023-02-07T05:30:23.486Z,79.00
2023-02-07T05:33:05.946Z,79.10
2023-02-07T05:35:35.548Z,79.00
2023-02-07T05:38:06.208Z,79.10
2023-02-07T05:40:34.959Z,79.10
2023-02-07T05:43:02.628Z,79.10
2023-02-07T05:45:29.972Z,79.10
2023-02-07T05:47:57.363Z,79.10
2023-02-07T05:50:25.374Z,79.20
2023-02-07T05:53:05.211Z,79.10
2023-02-07T05:55:32.731Z,79.10
2023-02-07T05:58:00.239Z,79.10
2023-02-07T06:00:27.966Z,79.20
2023-02-07T06:02:55.265Z,79.20
2023-02-07T06:05:23.843Z,79.20
2023-02-07T06:07:52.324Z,79.20
2023-02-07T06:10:20.121Z,79.20
2023-02-07T06:12:47.478Z,79.20
2023-02-07T06:15:14.719Z,79.20
2023-02-07T06:17:42.036Z,79.20
2023-02-07T06:20:09.999Z,79.30
2023-02-07T06:22:37.400Z,79.20
2023-02-07T06:25:04.946Z,79.20
2023-02-07T06:27:32.156Z,79.20
2023-02-07T06:29:59.583Z,79.20
2023-02-07T06:32:26.855Z,79.20
2023-02-07T06:34:54.098Z,79.30
2023-02-07T06:37:21.353Z,79.20
2023-02-07T06:39:48.591Z,79.20
2023-02-07T06:42:15.885Z,79.30
2023-02-07T06:44:43.136Z,79.30
2023-02-07T06:47:10.427Z,79.30
2023-02-07T06:49:37.978Z,79.30
2023-02-07T06:52:05.342Z,79.30
2023-02-07T06:54:32.633Z,79.20
2023-02-07T06:57:00.135Z,79.20
2023-02-07T06:59:27.510Z,79.20
2023-02-07T07:01:54.925Z,79.20
2023-02-07T07:04:22.220Z,79.20
2023-02-07T07:06:49.426Z,79.20
2023-02-07T07:09:17.058Z,79.80
2023-02-07T07:11:44.575Z,79.30
2023-02-07T07:14:12.776Z,79.20
2023-02-07T07:16:43.456Z,79.30
2023-02-07T07:19:10.956Z,79.30
2023-02-07T07:21:38.153Z,79.30
2023-02-07T07:24:05.814Z,79.30
2023-02-07T07:26:47.873Z,79.30
2023-02-07T07:29:17.718Z,79.30
2023-02-07T07:31:45.703Z,79.30
2023-02-07T07:34:13.569Z,79.30
2023-02-07T07:36:40.791Z,79.30
2023-02-07T07:39:09.602Z,79.30
2023-02-07T07:41:36.990Z,79.30
2023-02-07T07:44:04.482Z,79.40
2023-02-07T07:46:32.234Z,79.40
2023-02-07T07:48:59.765Z,79.40
2023-02-07T07:51:27.193Z,79.40
2023-02-07T07:53:54.583Z,79.40
2023-02-07T07:56:23.269Z,79.50
2023-02-07T07:58:51.588Z,79.50
2023-02-07T08:01:19.007Z,79.50
2023-02-07T08:03:46.244Z,79.60
2023-02-07T08:06:13.860Z,79.60
2023-02-07T08:08:41.258Z,79.60
2023-02-07T08:11:10.424Z,79.60
2023-02-07T08:13:38.540Z,79.60
2023-02-07T08:16:11.277Z,79.70
2023-02-07T08:18:38.845Z,79.70
2023-02-07T08:21:07.189Z,79.80
2023-02-07T08:23:35.121Z,79.80
2023-02-07T08:26:02.846Z,79.80
2023-02-07T08:28:31.161Z,79.90
2023-02-07T08:31:03.163Z,79.90
2023-02-07T08:33:31.031Z,79.90
2023-02-07T08:36:00.431Z,79.90
2023-02-07T08:38:27.923Z,79.90
2023-02-07T08:40:55.170Z,80.00
2023-02-07T08:43:22.388Z,80.00
2023-02-07T08:45:49.740Z,80.00
2023-02-07T08:48:17.306Z,80.10
2023-02-07T08:50:44.534Z,80.10
2023-02-07T08:53:12.369Z,80.10
2023-02-07T08:55:44.186Z,80.20
2023-02-07T08:58:11.703Z,80.20
2023-02-07T09:00:39.315Z,80.30
2023-02-07T09:03:07.095Z,80.20
2023-02-07T09:05:34.436Z,80.30
2023-02-07T09:08:02.626Z,80.30
2023-02-07T09:10:30.074Z,80.40
2023-02-07T09:12:57.424Z,80.40
2023-02-07T09:15:26.205Z,80.40
2023-02-07T09:17:53.544Z,80.50
2023-02-07T09:20:21.002Z,80.50
2023-02-07T09:23:07.011Z,80.50
2023-02-07T09:25:34.321Z,80.40
2023-02-07T09:28:01.737Z,80.50
2023-02-07T09:30:29.152Z,81.00
2023-02-07T09:32:58.418Z,80.40
2023-02-07T09:35:25.822Z,80.40
2023-02-07T09:37:54.505Z,80.30
2023-02-07T09:40:22.873Z,80.30
2023-02-07T09:43:01.007Z,80.30
2023-02-07T09:45:32.778Z,80.10
2023-02-07T09:48:18.219Z,80.00
2023-02-07T09:50:52.725Z,80.00
2023-02-07T09:53:25.693Z,79.80
2023-02-07T09:55:55.657Z,79.70
2023-02-07T09:58:51.779Z,79.70
2023-02-07T10:01:37.707Z,79.60
2023-02-07T10:04:07.849Z,79.60
2023-02-07T10:06:36.962Z,79.60
2023-02-07T10:09:06.698Z,79.50
2023-02-07T10:12:05.493Z,79.30
2023-02-07T10:14:35.818Z,79.00
2023-02-07T10:17:25.730Z,78.90
2023-02-07T10:20:24.382Z,78.30
2023-02-07T10:23:07.190Z,78.40
2023-02-07T10:25:37.486Z,78.20
2023-02-07T10:28:16.823Z,78.20
2023-02-07T10:30:51.621Z,78.10
2023-02-07T10:33:28.066Z,78.20
2023-02-07T10:35:57.016Z,78.10
2023-02-07T10:38:48.863Z,78.10
2023-02-07T10:41:39.231Z,78.00
2023-02-07T10:44:09.979Z,78.00
2023-02-07T10:46:38.806Z,77.90
2023-02-07T10:49:06.155Z,77.80
2023-02-07T10:51:41.685Z,77.80
2023-02-07T10:54:13.310Z,77.80
2023-02-07T10:56:53.604Z,77.80
2023-02-07T10:59:46.891Z,77.60
2023-02-07T11:02:31.157Z,77.50
2023-02-07T11:05:00.626Z,77.40
2023-02-07T11:07:46.001Z,77.50
2023-02-07T11:10:21.126Z,77.40
2023-02-07T11:12:59.213Z,77.30
2023-02-07T11:15:47.290Z,77.10
2023-02-07T11:18:37.621Z,76.80
2023-02-07T11:21:26.532Z,76.60
2023-02-07T11:23:58.899Z,76.40
2023-02-07T11:26:26.701Z,76.50
2023-02-07T11:29:16.206Z,76.10
2023-02-07T11:31:46.034Z,76.00
2023-02-07T11:34:31.198Z,76.00
2023-02-07T11:37:24.226Z,76.10
2023-02-07T11:39:57.826Z,75.60
2023-02-07T11:42:31.840Z,75.70
2023-02-07T11:45:05.462Z,75.80
2023-02-07T11:47:34.921Z,75.80
2023-02-07T11:50:06.955Z,75.90
2023-02-07T11:52:37.722Z,75.60
2023-02-07T11:55:09.266Z,75.40
2023-02-07T11:57:36.660Z,75.30
2023-02-07T12:00:07.227Z,74.90
2023-02-07T12:02:40.788Z,74.80
2023-02-07T12:05:21.824Z,74.80
2023-02-07T12:07:57.700Z,74.50
2023-02-07T12:10:30.399Z,74.80
2023-02-07T12:12:57.593Z,75.00
2023-02-07T12:15:42.604Z,75.70
2023-02-07T12:18:18.893Z,75.00
2023-02-07T12:21:05.062Z,74.10
2023-02-07T12:24:05.997Z,74.20
2023-02-07T12:27:06.624Z,73.50
2023-02-07T12:29:49.939Z,74.00
2023-02-07T12:32:27.672Z,73.80
2023-02-07T12:35:23.604Z,73.90
2023-02-07T12:37:56.682Z,73.90
2023-02-07T12:40:44.185Z,73.70
2023-02-07T12:43:33.245Z,73.50
2023-02-07T12:46:00.713Z,73.20
2023-02-07T12:48:52.238Z,73.20
2023-02-07T12:51:46.480Z,72.80
2023-02-07T12:54:19.772Z,71.90
2023-02-07T12:57:04.576Z,71.40
2023-02-07T12:59:43.112Z,71.50
2023-02-07T13:02:49.798Z,71.60
2023-02-07T13:05:32.178Z,71.50
2023-02-07T13:08:13.805Z,72.00
2023-02-07T13:10:46.849Z,71.80
2023-02-07T13:13:49.500Z,72.00
2023-02-07T13:16:29.182Z,72.10
2023-02-07T13:19:22.806Z,71.60
2023-02-07T13:22:00.351Z,71.90
2023-02-07T13:24:29.263Z,71.00
2023-02-07T13:27:03.864Z,70.30
2023-02-07T13:29:35.195Z,70.60
2023-02-07T13:32:12.560Z,70.90
2023-02-07T13:34:57.792Z,71.00
2023-02-07T13:38:02.251Z,70.80
2023-02-07T13:40:55.092Z,70.40
2023-02-07T13:43:48.791Z,70.70
2023-02-07T13:46:58.501Z,71.00
2023-02-07T13:49:57.569Z,70.90
2023-02-07T13:52:27.665Z,70.60
2023-02-07T13:55:27.400Z,70.90
2023-02-07T13:58:13.559Z,70.90
2023-02-07T14:01:09.227Z,70.70
2023-02-07T14:03:37.102Z,70.60
2023-02-07T14:06:44.388Z,70.60
2023-02-07T14:09:39.284Z,70.50
2023-02-07T14:12:28.092Z,70.10
2023-02-07T14:15:03.784Z,70.10
2023-02-07T14:17:32.652Z,70.00
2023-02-07T14:20:02.297Z,70.30
2023-02-07T14:22:52.448Z,69.90
2023-02-07T14:25:31.655Z,70.50
2023-02-07T14:28:17.132Z,70.70
2023-02-07T14:30:53.408Z,70.70
2023-02-07T14:33:28.896Z,70.90
2023-02-07T14:36:25.303Z,70.80
2023-02-07T14:39:07.059Z,70.70
2023-02-07T14:41:37.770Z,70.30
2023-02-07T14:44:10.325Z,70.30
2023-02-07T14:46:42.206Z,70.20
2023-02-07T14:49:21.745Z,71.10
2023-02-07T14:51:58.320Z,69.80
2023-02-07T14:54:41.002Z,70.00
2023-02-07T14:57:26.179Z,69.60
2023-02-07T15:00:14.374Z,69.80
2023-02-07T15:02:42.879Z,70.00
2023-02-07T15:05:26.113Z,70.30
2023-02-07T15:08:02.601Z,70.20
2023-02-07T15:10:33.844Z,70.10
2023-02-07T15:13:02.955Z,70.10
2023-02-07T15:15:52.920Z,70.00
2023-02-07T15:18:45.723Z,70.10
2023-02-07T15:21:30.367Z,70.20
2023-02-07T15:24:16.336Z,70.10
2023-02-07T15:26:48.697Z,70.20
2023-02-07T15:29:23.135Z,70.20
2023-02-07T15:31:51.946Z,70.10
2023-02-07T15:34:25.429Z,70.10
2023-02-07T15:36:53.545Z,70.00
2023-02-07T15:39:24.113Z,70.00
2023-02-07T15:41:54.193Z,69.80
2023-02-07T15:44:27.610Z,69.80
2023-02-07T15:46:58.880Z,69.60
2023-02-07T15:49:35.022Z,69.60
2023-02-07T15:52:13.627Z,69.40
2023-02-07T15:54:45.281Z,69.50
2023-02-07T15:57:35.777Z,69.30
2023-02-07T16:00:08.316Z,69.10
2023-02-07T16:02:47.568Z,69.30
2023-02-07T16:05:32.042Z,69.30
2023-02-07T16:08:01.771Z,69.30
2023-02-07T16:10:38.933Z,69.40
2023-02-07T16:13:12.237Z,69.30
2023-02-07T16:15:52.986Z,69.30
2023-02-07T16:18:41.492Z,69.40
2023-02-07T16:21:21.182Z,69.50
2023-02-07T16:23:51.608Z,69.30
2023-02-07T16:26:22.014Z,69.40
2023-02-07T16:28:49.904Z,69.40
2023-02-07T16:31:17.362Z,69.50
2023-02-07T16:33:44.934Z,69.50
2023-02-07T16:36:17.230Z,69.50
2023-02-07T16:38:46.378Z,69.50
2023-02-07T16:41:32.283Z,69.60
2023-02-07T16:44:02.046Z,69.70
2023-02-07T16:46:30.041Z,69.80
2023-02-07T16:48:57.655Z,69.90
2023-02-07T16:51:28.000Z,70.00
2023-02-07T16:53:55.437Z,70.10
2023-02-07T16:56:27.014Z,70.20
2023-02-07T16:58:54.380Z,70.30
2023-02-07T17:01:22.761Z,70.40
2023-02-07T17:03:50.204Z,70.50
2023-02-07T17:06:20.411Z,70.60
2023-02-07T17:08:49.077Z,70.60
2023-02-07T17:11:25.717Z,70.60
2023-02-07T17:13:58.296Z,70.70
2023-02-07T17:16:27.580Z,70.70
2023-02-07T17:18:54.938Z,70.80
2023-02-07T17:21:23.884Z,70.90
2023-02-07T17:23:51.384Z,71.00
2023-02-07T17:26:22.388Z,71.10
2023-02-07T17:28:54.471Z,71.20
2023-02-07T17:31:22.929Z,71.20
2023-02-07T17:33:51.708Z,71.30
2023-02-07T17:36:20.060Z,71.40
2023-02-07T17:38:47.958Z,71.50
2023-02-07T17:41:16.263Z,71.50
2023-02-07T17:43:43.500Z,71.50
2023-02-07T17:46:18.302Z,71.60
2023-02-07T17:48:49.647Z,71.60
2023-02-07T17:51:20.101Z,71.70
2023-02-07T17:53:47.867Z,71.70
2023-02-07T17:56:25.341Z,71.70
2023-02-07T17:58:54.422Z,71.80
2023-02-07T18:01:22.403Z,71.70
2023-02-07T18:03:52.180Z,71.70
2023-02-07T18:06:21.578Z,71.80
2023-02-07T18:08:49.091Z,71.80
2023-02-07T18:11:17.217Z,71.90
2023-02-07T18:13:47.243Z,71.90
2023-02-07T18:16:25.616Z,71.90
2023-02-07T18:18:55.893Z,71.90
2023-02-07T18:21:24.096Z,72.00
2023-02-07T18:23:53.595Z,72.10
2023-02-07T18:26:21.734Z,72.20
2023-02-07T18:28:49.466Z,72.30
2023-02-07T18:31:23.206Z,72.30
2023-02-07T18:33:52.111Z,72.40
2023-02-07T18:36:21.106Z,72.50
2023-02-07T18:38:48.474Z,72.50
2023-02-07T18:41:22.583Z,72.60
2023-02-07T18:43:50.199Z,72.70
2023-02-07T18:46:20.671Z,72.80
2023-02-07T18:48:51.987Z,72.80
2023-02-07T18:51:19.785Z,72.90
2023-02-07T18:53:47.461Z,72.90
2023-02-07T18:56:17.407Z,72.90
2023-02-07T18:58:49.384Z,72.90
2023-02-07T19:01:20.486Z,73.00
2023-02-07T19:03:54.509Z,73.00
2023-02-07T19:06:23.813Z,73.00
2023-02-07T19:08:51.378Z,73.10
2023-02-07T19:11:19.571Z,73.10
2023-02-07T19:13:47.170Z,73.10
2023-02-07T19:16:18.362Z,73.10
2023-02-07T19:18:47.326Z,73.10
2023-02-07T19:21:24.056Z,73.10
2023-02-07T19:23:51.471Z,73.20
2023-02-07T19:26:20.242Z,73.20
2023-02-07T19:28:48.010Z,73.20
2023-02-07T19:31:18.512Z,73.20
2023-02-07T19:33:49.498Z,73.20
2023-02-07T19:36:19.175Z,73.20
2023-02-07T19:38:48.889Z,73.30
2023-02-07T19:41:19.288Z,73.30
2023-02-07T19:43:48.720Z,73.30
2023-02-07T19:46:17.123Z,73.30
2023-02-07T19:48:45.635Z,73.40
2023-02-07T19:51:16.507Z,73.50
2023-02-07T19:53:45.627Z,73.50
2023-02-07T19:56:13.839Z,73.50
2023-02-07T19:58:44.287Z,73.50
2023-02-07T20:01:13.259Z,73.60
2023-02-07T20:03:41.615Z,73.70
2023-02-07T20:06:12.277Z,73.70
2023-02-07T20:08:40.614Z,73.80
2023-02-07T20:11:10.820Z,73.80
2023-02-07T20:13:40.423Z,73.90
2023-02-07T20:16:20.007Z,73.90
2023-02-07T20:18:47.937Z,73.90
2023-02-07T20:21:19.119Z,74.00
2023-02-07T20:23:49.172Z,73.90
2023-02-07T20:26:20.173Z,74.00
2023-02-07T20:28:48.799Z,74.10
2023-02-07T20:31:20.426Z,74.10
2023-02-07T20:33:47.910Z,74.10
2023-02-07T20:36:18.061Z,74.10
2023-02-07T20:38:47.755Z,74.20
2023-02-07T20:41:29.920Z,74.30
2023-02-07T20:44:11.465Z,74.30
2023-02-07T20:46:41.178Z,74.30
2023-02-07T20:49:16.769Z,74.40
2023-02-07T20:51:45.679Z,74.40
2023-02-07T20:54:13.492Z,74.50
2023-02-07T20:56:41.490Z,74.50
2023-02-07T20:59:10.558Z,74.50
2023-02-07T21:01:38.280Z,74.50
2023-02-07T21:04:06.481Z,74.60
2023-02-07T21:06:35.061Z,74.60
2023-02-07T21:09:04.610Z,74.60
2023-02-07T21:11:38.441Z,74.60
2023-02-07T21:14:08.575Z,74.50
2023-02-07T21:16:36.133Z,74.60
2023-02-07T21:19:03.626Z,74.60
2023-02-07T21:21:31.277Z,74.60
2023-02-07T21:23:59.085Z,74.60
2023-02-07T21:26:27.243Z,74.70
2023-02-07T21:29:03.029Z,74.80
2023-02-07T21:31:32.640Z,74.80
2023-02-07T21:34:00.850Z,74.80
2023-02-07T21:36:30.358Z,74.80
2023-02-07T21:38:59.545Z,74.90
2023-02-07T21:41:28.550Z,74.90
2023-02-07T21:43:56.593Z,74.90
2023-02-07T21:46:29.514Z,75.00
2023-02-07T21:49:02.616Z,75.10
2023-02-07T21:51:31.992Z,75.20
2023-02-07T21:54:00.544Z,75.20
2023-02-07T21:56:30.778Z,75.20
2023-02-07T21:59:04.839Z,75.20
2023-02-07T22:01:33.260Z,75.20
2023-02-07T22:04:02.041Z,75.20
2023-02-07T22:06:30.411Z,75.20
2023-02-07T22:09:00.261Z,75.20
2023-02-07T22:11:30.058Z,75.30
2023-02-07T22:13:58.504Z,75.30
2023-02-07T22:16:28.477Z,75.30
2023-02-07T22:18:57.381Z,75.40
2023-02-07T22:21:33.811Z,75.40
2023-02-07T22:24:02.775Z,75.40
2023-02-07T22:26:31.387Z,75.40
2023-02-07T22:28:59.364Z,75.50
2023-02-07T22:31:29.151Z,75.50
2023-02-07T22:34:00.775Z,75.60
2023-02-07T22:36:33.499Z,75.60
2023-02-07T22:39:03.027Z,75.50
2023-02-07T22:41:30.360Z,75.60
2023-02-07T22:43:57.875Z,75.60
2023-02-07T22:46:25.272Z,75.70
2023-02-07T22:48:53.707Z,75.70
2023-02-07T22:51:26.604Z,75.70
2023-02-07T22:53:56.777Z,75.80
2023-02-07T22:56:25.026Z,75.80
2023-02-07T22:58:53.724Z,75.80
2023-02-07T23:01:26.743Z,75.80
2023-02-07T23:03:55.286Z,75.90
2023-02-07T23:06:23.805Z,75.80
2023-02-07T23:08:51.737Z,75.80
2023-02-07T23:11:21.104Z,75.80
2023-02-07T23:13:49.029Z,75.80
2023-02-07T23:16:20.867Z,75.90
2023-02-07T23:18:49.646Z,76.00
2023-02-07T23:21:18.920Z,75.90
2023-02-07T23:23:46.591Z,75.90
2023-02-07T23:26:16.153Z,76.00
2023-02-07T23:28:43.551Z,76.00
2023-02-07T23:31:12.448Z,76.00
2023-02-07T23:33:40.129Z,76.10
2023-02-07T23:36:08.313Z,76.00
2023-02-07T23:38:36.248Z,76.10
2023-02-07T23:41:04.252Z,76.20
2023-02-07T23:43:31.756Z,76.20
2023-02-07T23:45:59.069Z,76.20
2023-02-07T23:48:26.665Z,76.20
2023-02-07T23:50:55.846Z,76.30
2023-02-07T23:53:24.346Z,76.20
2023-02-07T23:55:54.577Z,76.20
2023-02-07T23:58:23.482Z,76.30
